SBPP/PMG METAR and TAF weather

Enter ICAO airport designator
Station Type Date Time Source
SBPP METAR 2020/07/04 22:00 UTC NOAA

SBPP 042200Z 04006KT CAVOK 20/14 Q1012


Station Type Date Time Source
SBPP Decoded METAR 2020/07/04 22:00 UTC NOAA

Ponta Pora Intl , Brazil (SBPP) 22-33S 055-42W
Jul 04, 2020 - 06:00 PM EDT / 2020.07.04 2200 UTC
Wind: from the NE (040 degrees) at 7 MPH (6 KT):0
Visibility: greater than 7 mile(s):0
Temperature: 68 F (20 C)
Dew Point: 57 F (14 C)
Relative Humidity: 68%
Pressure (altimeter): 29.88 in. Hg (1012 hPa)
ob: SBPP 042200Z 04006KT CAVOK 20/14 Q1012
cycle: 22

Station Type Date Time Source
SBPP TAF 2020/07/05 06:09 UTC NOAA

TAF SBPP 050300Z 0506/0606 09010KT CAVOK TN07/0509Z TX22/0517Z
BECMG 0512/0514 03008KT
BECMG 0602/0604 07010KT
RMK PFF

Example: see airport list